Greenville, Virginia
Current Conditions -  °F | °C
As of 5:15 PM on Saturday 20 Dec 2014 (Local Time) from KW13 Reporting Station
Overcast Overcast  
Wind Chill: 34°   Ceiling: 6000
Heat Index: 34°   Visibility: 10mi
Dew Point: 24°   Wind: 0mph
Humidity: 68%   Direction: NA
Pressure: 30.19"   Gusts: NA
Location:  38°N, 79.16°W
Report Text: KW13 202215Z AUTO 00000KT 10SM OVC060 01/M04 A3019 RMK AO1 T00101043
Loading
Personal Weather Stations






























Interactive Weather Map New forecast layout! Learn more

10-Day Weather Forecast

Advertisements
Track Severe Weather on mobile